createdAt,value
2019-04-25T00:00:17.654Z,2.80
2019-04-25T00:02:48.698Z,2.40
2019-04-25T00:05:18.507Z,2.87
2019-04-25T00:07:49.540Z,3.00
2019-04-25T00:10:19.118Z,2.70
2019-04-25T00:12:48.541Z,2.60
2019-04-25T00:15:18.155Z,2.63
2019-04-25T00:17:48.258Z,2.60
2019-04-25T00:20:17.931Z,2.57
2019-04-25T00:22:53.384Z,2.30
2019-04-25T00:25:33.821Z,2.30
2019-04-25T00:28:03.472Z,2.10
2019-04-25T00:30:33.282Z,2.17
2019-04-25T00:33:02.928Z,2.57
2019-04-25T00:35:33.411Z,2.67
2019-04-25T00:38:03.977Z,2.40
2019-04-25T00:40:33.562Z,1.90
2019-04-25T00:43:03.057Z,1.53
2019-04-25T00:45:32.629Z,1.60
2019-04-25T00:48:04.327Z,1.70
2019-04-25T00:50:35.508Z,1.33
2019-04-25T00:53:04.955Z,1.27
2019-04-25T00:55:34.417Z,1.10
2019-04-25T00:58:15.883Z,0.83
2019-04-25T01:00:49.606Z,1.00
2019-04-25T01:03:21.859Z,0.90
2019-04-25T01:05:53.291Z,1.00
2019-04-25T01:08:22.929Z,0.90
2019-04-25T01:10:54.331Z,1.30
2019-04-25T01:13:23.774Z,1.00
2019-04-25T01:15:53.753Z,0.87
2019-04-25T01:18:23.310Z,0.60
2019-04-25T01:20:54.414Z,1.00
2019-04-25T01:23:24.178Z,0.60
2019-04-25T01:25:54.642Z,0.70
2019-04-25T01:28:25.401Z,0.83
2019-04-25T01:30:55.165Z,0.60
2019-04-25T01:33:26.496Z,0.60
2019-04-25T01:36:07.044Z,0.70
2019-04-25T01:38:40.704Z,0.60
2019-04-25T01:41:14.658Z,0.70
2019-04-25T01:43:52.676Z,0.60
2019-04-25T01:46:20.492Z,0.80
2019-04-25T01:48:50.151Z,0.73
2019-04-25T01:51:19.774Z,0.80
2019-04-25T01:53:49.212Z,0.90
2019-04-25T01:56:18.989Z,0.80
2019-04-25T01:58:48.903Z,0.80
2019-04-25T02:01:24.058Z,1.20
2019-04-25T02:03:55.574Z,1.07
2019-04-25T02:06:25.079Z,1.20
2019-04-25T02:08:55.325Z,1.20
2019-04-25T02:11:34.021Z,1.20
2019-04-25T02:14:05.217Z,0.97
2019-04-25T02:16:35.421Z,1.17
2019-04-25T02:19:06.197Z,1.37
2019-04-25T02:21:35.640Z,1.40
2019-04-25T02:24:05.699Z,1.53
2019-04-25T02:26:36.334Z,1.23
2019-04-25T02:29:05.848Z,1.20
2019-04-25T02:31:36.333Z,1.33
2019-04-25T02:34:08.332Z,1.20
2019-04-25T02:36:37.139Z,1.20
2019-04-25T02:39:11.274Z,1.23
2019-04-25T02:41:40.686Z,1.10
2019-04-25T02:44:10.338Z,1.20
2019-04-25T02:46:41.765Z,1.10
2019-04-25T02:49:35.911Z,1.20
2019-04-25T02:52:03.545Z,1.70
2019-04-25T02:54:34.820Z,1.20
2019-04-25T02:57:07.813Z,1.50
2019-04-25T02:59:37.054Z,1.40
2019-04-25T03:02:09.096Z,1.57
2019-04-25T03:04:38.844Z,2.00
2019-04-25T03:07:11.351Z,1.60
2019-04-25T03:09:39.944Z,1.50
2019-04-25T03:12:09.614Z,1.70
2019-04-25T03:14:39.161Z,1.67
2019-04-25T03:17:09.971Z,2.13
2019-04-25T03:19:41.330Z,1.83
2019-04-25T03:22:14.966Z,1.57
2019-04-25T03:24:45.705Z,1.80
2019-04-25T03:27:14.734Z,1.30
2019-04-25T03:29:45.669Z,1.27
2019-04-25T03:32:19.720Z,1.13
2019-04-25T03:34:46.481Z,1.43
2019-04-25T03:37:15.887Z,1.20
2019-04-25T03:39:45.327Z,1.20
2019-04-25T03:42:14.767Z,1.40
2019-04-25T03:44:44.205Z,1.43
2019-04-25T03:47:16.829Z,1.03
2019-04-25T03:49:46.505Z,1.37
2019-04-25T03:52:15.958Z,1.57
2019-04-25T03:54:45.393Z,1.40
2019-04-25T03:57:14.813Z,1.20
2019-04-25T03:59:45.223Z,1.40
2019-04-25T04:02:15.219Z,1.30
2019-04-25T04:04:44.876Z,1.60
2019-04-25T04:07:15.703Z,1.30
2019-04-25T04:09:45.344Z,2.00
2019-04-25T04:12:15.690Z,1.43
2019-04-25T04:14:45.190Z,1.57
2019-04-25T04:17:16.283Z,1.70
2019-04-25T04:19:53.693Z,1.30
2019-04-25T04:22:24.916Z,1.30
2019-04-25T04:24:55.975Z,1.30
2019-04-25T04:27:25.404Z,1.30
2019-04-25T04:29:54.900Z,1.20
2019-04-25T04:32:24.334Z,1.40
2019-04-25T04:34:53.875Z,1.20
2019-04-25T04:37:23.724Z,1.33
2019-04-25T04:39:53.735Z,1.30
2019-04-25T04:42:23.696Z,1.47
2019-04-25T04:44:53.580Z,1.43
2019-04-25T04:47:23.683Z,1.20
2019-04-25T04:49:54.163Z,1.20
2019-04-25T04:52:25.707Z,1.10
2019-04-25T04:55:05.373Z,1.20
2019-04-25T04:57:31.938Z,0.90
2019-04-25T04:59:57.289Z,1.00
2019-04-25T05:02:47.997Z,1.03
2019-04-25T05:05:19.157Z,0.90
2019-04-25T05:08:01.901Z,0.97
2019-04-25T05:10:31.349Z,0.80
2019-04-25T05:13:00.764Z,1.00
2019-04-25T05:15:30.278Z,1.40
2019-04-25T05:17:59.762Z,1.00
2019-04-25T05:20:29.213Z,1.10
2019-04-25T05:22:58.645Z,0.80
2019-04-25T05:25:28.130Z,0.70
2019-04-25T05:28:02.528Z,0.90
2019-04-25T05:30:36.424Z,0.93
2019-04-25T05:33:05.873Z,0.83
2019-04-25T05:35:35.286Z,0.70
2019-04-25T05:38:05.057Z,0.90
2019-04-25T05:40:36.123Z,0.93
2019-04-25T05:43:07.355Z,0.70
2019-04-25T05:45:36.871Z,0.50
2019-04-25T05:48:06.367Z,0.60
2019-04-25T05:50:35.820Z,0.60
2019-04-25T05:53:05.315Z,0.60
2019-04-25T05:55:34.767Z,0.60
2019-04-25T05:58:04.277Z,0.60
2019-04-25T06:00:34.198Z,0.70
2019-04-25T06:03:03.894Z,0.60
2019-04-25T06:05:33.703Z,0.50
2019-04-25T06:08:04.338Z,0.60
2019-04-25T06:10:53.810Z,0.60
2019-04-25T06:13:26.398Z,0.47
2019-04-25T06:15:57.754Z,0.50
2019-04-25T06:18:28.879Z,0.50
2019-04-25T06:20:58.318Z,0.60
2019-04-25T06:23:46.127Z,0.60
2019-04-25T06:26:26.748Z,0.60
2019-04-25T06:28:57.178Z,0.60
2019-04-25T06:31:21.414Z,0.93
2019-04-25T06:33:54.111Z,0.80
2019-04-25T06:36:24.560Z,0.70
2019-04-25T06:38:54.928Z,0.60
2019-04-25T06:41:25.870Z,1.13
2019-04-25T06:43:57.158Z,0.77
2019-04-25T06:46:44.110Z,0.80
2019-04-25T06:49:17.888Z,0.60
2019-04-25T06:51:49.065Z,1.23
2019-04-25T06:54:20.971Z,1.07
2019-04-25T06:56:51.544Z,0.50
2019-04-25T06:59:23.033Z,0.80
2019-04-25T07:01:54.099Z,0.80
2019-04-25T07:04:26.273Z,0.90
2019-04-25T07:06:54.936Z,1.40
2019-04-25T07:09:27.251Z,0.80
2019-04-25T07:11:55.735Z,0.90
2019-04-25T07:14:26.736Z,0.90
2019-04-25T07:16:56.590Z,0.90
2019-04-25T07:19:27.120Z,1.10
2019-04-25T07:21:57.356Z,0.97
2019-04-25T07:24:27.258Z,0.60
2019-04-25T07:27:10.796Z,0.70
2019-04-25T07:29:44.689Z,0.60
2019-04-25T07:32:21.531Z,0.50
2019-04-25T07:34:51.047Z,0.70
2019-04-25T07:37:20.557Z,0.80
2019-04-25T07:39:51.189Z,0.87
2019-04-25T07:42:23.998Z,0.70
2019-04-25T07:44:55.224Z,0.70
2019-04-25T07:47:26.791Z,0.60
2019-04-25T07:49:56.243Z,2.10
2019-04-25T07:52:26.989Z,0.50
2019-04-25T07:54:58.518Z,0.80
2019-04-25T07:57:28.006Z,0.50
2019-04-25T07:59:57.633Z,0.50
2019-04-25T08:02:27.300Z,0.50
2019-04-25T08:05:02.209Z,0.50
2019-04-25T08:07:31.685Z,0.50
2019-04-25T08:10:01.187Z,0.40
2019-04-25T08:12:31.051Z,0.70
2019-04-25T08:15:05.096Z,0.40
2019-04-25T08:17:54.027Z,0.50
2019-04-25T08:20:24.445Z,0.60
2019-04-25T08:22:58.857Z,0.40
2019-04-25T08:25:26.958Z,0.43
2019-04-25T08:27:56.450Z,0.90
2019-04-25T08:30:26.032Z,0.40
2019-04-25T08:32:56.414Z,0.60
2019-04-25T08:35:25.916Z,0.60
2019-04-25T08:37:55.423Z,0.50
2019-04-25T08:40:25.494Z,0.50
2019-04-25T08:42:54.929Z,0.73
2019-04-25T08:45:24.613Z,0.50
2019-04-25T08:47:54.001Z,0.40
2019-04-25T08:50:29.173Z,0.50
2019-04-25T08:52:56.695Z,0.90
2019-04-25T08:55:45.586Z,0.60
2019-04-25T08:58:18.045Z,0.60
2019-04-25T09:01:00.889Z,0.30
2019-04-25T09:03:27.628Z,0.50
2019-04-25T09:05:57.472Z,0.43
2019-04-25T09:08:27.416Z,0.40
2019-04-25T09:10:56.932Z,0.30
2019-04-25T09:13:26.344Z,0.50
2019-04-25T09:15:55.793Z,0.60
2019-04-25T09:18:25.226Z,0.57
2019-04-25T09:20:54.638Z,0.50
2019-04-25T09:23:24.141Z,0.60
2019-04-25T09:25:54.438Z,0.45
2019-04-25T09:28:23.994Z,0.37
2019-04-25T09:30:54.015Z,0.40
2019-04-25T09:33:24.743Z,0.50
2019-04-25T09:35:55.948Z,0.33
2019-04-25T09:38:25.523Z,0.50
2019-04-25T09:40:54.947Z,0.68
2019-04-25T09:43:24.596Z,0.50
2019-04-25T09:46:04.898Z,0.60
2019-04-25T09:48:51.957Z,0.50
2019-04-25T09:51:23.616Z,0.40
2019-04-25T09:53:54.765Z,0.30
2019-04-25T09:56:25.919Z,0.37
2019-04-25T09:58:56.995Z,0.40
2019-04-25T10:01:28.408Z,0.40
2019-04-25T10:03:59.463Z,0.37
2019-04-25T10:06:28.975Z,0.30
2019-04-25T10:08:58.560Z,0.37
2019-04-25T10:11:28.709Z,0.30
2019-04-25T10:14:06.848Z,0.20
2019-04-25T10:16:36.271Z,0.25
2019-04-25T10:19:05.875Z,0.30
2019-04-25T10:21:35.427Z,0.20
2019-04-25T10:24:05.029Z,0.15
2019-04-25T10:26:34.953Z,0.20
2019-04-25T10:29:05.910Z,0.50
2019-04-25T10:31:35.997Z,0.30
2019-04-25T10:34:07.383Z,0.40
2019-04-25T10:36:39.781Z,0.20
2019-04-25T10:39:11.207Z,0.20
2019-04-25T10:41:41.378Z,0.20
2019-04-25T10:44:11.068Z,0.20
2019-04-25T10:46:41.711Z,0.45
2019-04-25T10:49:11.486Z,0.30
2019-04-25T10:51:42.171Z,0.20
2019-04-25T10:54:12.336Z,0.30
2019-04-25T10:56:41.830Z,0.30
2019-04-25T10:59:11.372Z,0.30
2019-04-25T11:01:41.235Z,0.68
2019-04-25T11:04:16.462Z,0.35
2019-04-25T11:06:45.877Z,0.20
2019-04-25T11:09:20.138Z,0.78
2019-04-25T11:11:52.760Z,0.30
2019-04-25T11:14:23.933Z,0.37
2019-04-25T11:16:55.209Z,0.40
2019-04-25T11:19:25.029Z,0.50
2019-04-25T11:21:54.609Z,0.30
2019-04-25T11:24:24.105Z,0.30
2019-04-25T11:26:55.219Z,0.25
2019-04-25T11:29:25.934Z,0.35
2019-04-25T11:31:58.537Z,0.33
2019-04-25T11:34:28.031Z,0.33
2019-04-25T11:36:57.744Z,0.30
2019-04-25T11:39:46.076Z,0.40
2019-04-25T11:42:16.894Z,0.50
2019-04-25T11:44:46.442Z,0.40
2019-04-25T11:47:16.037Z,0.42
2019-04-25T11:49:47.434Z,0.40
2019-04-25T11:52:27.532Z,0.23
2019-04-25T11:54:50.064Z,0.30
2019-04-25T11:57:19.668Z,0.30
2019-04-25T11:59:50.604Z,0.40
2019-04-25T12:02:23.844Z,0.40
2019-04-25T12:04:54.898Z,0.50
2019-04-25T12:07:27.292Z,0.40
2019-04-25T12:09:59.351Z,0.33
2019-04-25T12:12:28.785Z,0.20
2019-04-25T12:14:59.135Z,0.42
2019-04-25T12:17:28.627Z,0.28
2019-04-25T12:19:58.230Z,0.37
2019-04-25T12:22:27.731Z,0.40
2019-04-25T12:24:57.233Z,0.30
2019-04-25T12:27:29.993Z,0.50
2019-04-25T12:29:59.618Z,0.47
2019-04-25T12:32:29.009Z,0.53
2019-04-25T12:34:58.447Z,0.37
2019-04-25T12:37:27.954Z,0.30
2019-04-25T12:39:57.633Z,0.40
2019-04-25T12:42:27.043Z,0.30
2019-04-25T12:44:58.195Z,0.30
2019-04-25T12:47:29.195Z,0.30
2019-04-25T12:50:00.027Z,0.30
2019-04-25T12:52:29.584Z,0.30
2019-04-25T12:54:59.102Z,0.37
2019-04-25T12:57:28.776Z,0.30
2019-04-25T12:59:59.282Z,0.30
2019-04-25T13:02:28.698Z,0.30
2019-04-25T13:04:58.218Z,0.30
2019-04-25T13:07:27.715Z,0.30
2019-04-25T13:09:57.247Z,0.30
2019-04-25T13:12:26.937Z,0.30
2019-04-25T13:14:56.370Z,0.35
2019-04-25T13:17:25.866Z,0.50
2019-04-25T13:19:56.642Z,0.37
2019-04-25T13:22:26.270Z,0.42
2019-04-25T13:24:56.280Z,0.50
2019-04-25T13:27:27.526Z,0.30
2019-04-25T13:29:58.839Z,0.60
2019-04-25T13:32:35.682Z,0.40
2019-04-25T13:35:18.853Z,0.40
2019-04-25T13:37:48.369Z,0.50
2019-04-25T13:40:18.500Z,0.30
2019-04-25T13:42:48.404Z,0.40
2019-04-25T13:45:17.961Z,0.47
2019-04-25T13:47:47.397Z,0.40
2019-04-25T13:50:17.275Z,0.53
2019-04-25T13:52:46.863Z,0.33
2019-04-25T13:55:16.356Z,0.30
2019-04-25T13:57:46.939Z,0.40
2019-04-25T14:00:18.963Z,0.50
2019-04-25T14:02:48.526Z,0.60
2019-04-25T14:05:20.289Z,0.30
2019-04-25T14:07:50.602Z,0.50
2019-04-25T14:10:21.463Z,0.47
2019-04-25T14:12:50.945Z,0.42
2019-04-25T14:15:24.144Z,0.40
2019-04-25T14:18:01.669Z,0.70
2019-04-25T14:20:36.597Z,0.40
2019-04-25T14:23:07.394Z,0.20
2019-04-25T14:25:37.046Z,0.47
2019-04-25T14:28:05.799Z,0.30
2019-04-25T14:30:36.007Z,0.40
2019-04-25T14:33:05.643Z,0.23
2019-04-25T14:35:35.490Z,0.57
2019-04-25T14:38:07.785Z,0.30
2019-04-25T14:40:37.538Z,0.37
2019-04-25T14:43:07.134Z,0.33
2019-04-25T14:45:44.411Z,0.30
2019-04-25T14:48:09.493Z,0.30
2019-04-25T14:50:39.005Z,0.50
2019-04-25T14:53:08.528Z,0.30
2019-04-25T14:55:39.604Z,0.40
2019-04-25T14:58:13.622Z,0.50
2019-04-25T15:00:44.826Z,0.40
2019-04-25T15:03:14.268Z,0.33
2019-04-25T15:05:43.793Z,0.30
2019-04-25T15:08:13.283Z,0.33
2019-04-25T15:10:42.867Z,0.30
2019-04-25T15:13:12.632Z,0.35
2019-04-25T15:15:42.211Z,0.30
2019-04-25T15:18:13.745Z,0.40
2019-04-25T15:20:43.216Z,0.40
2019-04-25T15:23:12.619Z,0.40
2019-04-25T15:25:42.237Z,0.47
2019-04-25T15:28:11.661Z,0.50
2019-04-25T15:30:41.348Z,0.30
2019-04-25T15:33:14.152Z,0.40
2019-04-25T15:35:58.142Z,0.30
2019-04-25T15:38:29.288Z,0.40
2019-04-25T15:41:00.811Z,0.40
2019-04-25T15:43:31.983Z,0.30
2019-04-25T15:46:06.583Z,0.75
2019-04-25T15:48:36.114Z,0.60
2019-04-25T15:51:05.689Z,0.30
2019-04-25T15:53:35.128Z,0.40
2019-04-25T15:56:05.790Z,0.40
2019-04-25T15:58:35.366Z,0.30
2019-04-25T16:01:07.017Z,0.37
2019-04-25T16:03:36.519Z,0.45
2019-04-25T16:06:05.979Z,0.40
2019-04-25T16:08:35.461Z,0.57
2019-04-25T16:11:05.338Z,0.30
2019-04-25T16:13:34.974Z,0.30
2019-04-25T16:16:04.628Z,0.40
2019-04-25T16:18:34.115Z,0.30
2019-04-25T16:21:03.714Z,0.50
2019-04-25T16:23:34.281Z,0.40
2019-04-25T16:26:06.081Z,0.40
2019-04-25T16:28:36.064Z,0.30
2019-04-25T16:31:07.390Z,0.40
2019-04-25T16:33:37.764Z,0.30
2019-04-25T16:36:09.571Z,0.40
2019-04-25T16:38:39.089Z,0.30
2019-04-25T16:41:09.456Z,0.30
2019-04-25T16:43:41.049Z,0.50
2019-04-25T16:46:11.049Z,0.30
2019-04-25T16:48:41.086Z,0.30
2019-04-25T16:51:10.646Z,0.55
2019-04-25T16:53:40.112Z,0.30
2019-04-25T16:56:09.885Z,0.45
2019-04-25T16:58:39.328Z,0.50
2019-04-25T17:01:10.462Z,0.30
2019-04-25T17:03:41.398Z,0.50
2019-04-25T17:06:11.318Z,0.30
2019-04-25T17:08:40.996Z,0.30
2019-04-25T17:11:11.090Z,0.60
2019-04-25T17:13:45.086Z,0.30
2019-04-25T17:16:28.491Z,0.30
2019-04-25T17:19:02.639Z,0.35
2019-04-25T17:21:34.786Z,0.30
2019-04-25T17:24:04.880Z,0.40
2019-04-25T17:26:34.842Z,0.20
2019-04-25T17:29:06.678Z,0.40
2019-04-25T17:31:40.914Z,0.30
2019-04-25T17:34:24.502Z,0.40
2019-04-25T17:36:58.882Z,0.47
2019-04-25T17:39:35.585Z,0.30
2019-04-25T17:42:05.140Z,0.50
2019-04-25T17:44:35.102Z,0.40
2019-04-25T17:47:06.366Z,0.30
2019-04-25T17:49:36.709Z,0.37
2019-04-25T17:52:06.816Z,0.30
2019-04-25T17:54:38.948Z,0.33
2019-04-25T17:57:08.389Z,0.30
2019-04-25T17:59:39.706Z,0.50
2019-04-25T18:02:12.357Z,0.30
2019-04-25T18:04:42.535Z,0.33
2019-04-25T18:07:12.145Z,0.40
2019-04-25T18:09:41.820Z,0.30
2019-04-25T18:12:11.265Z,0.75
2019-04-25T18:14:43.910Z,0.57
2019-04-25T18:17:13.568Z,0.20
2019-04-25T18:19:50.327Z,0.40
2019-04-25T18:22:21.455Z,0.30
2019-04-25T18:25:01.557Z,0.30
2019-04-25T18:27:36.530Z,0.23
2019-04-25T18:30:08.899Z,0.40
2019-04-25T18:32:45.627Z,0.30
2019-04-25T18:35:16.702Z,0.30
2019-04-25T18:37:49.317Z,0.45
2019-04-25T18:40:31.183Z,0.30
2019-04-25T18:43:21.329Z,0.40
2019-04-25T18:46:07.500Z,0.30
2019-04-25T18:48:37.040Z,0.30
2019-04-25T18:51:06.908Z,0.40
2019-04-25T18:53:53.112Z,0.30
2019-04-25T18:56:24.323Z,0.30
2019-04-25T18:59:11.872Z,0.40
2019-04-25T19:01:52.115Z,0.20
2019-04-25T19:04:23.792Z,0.50
2019-04-25T19:06:59.621Z,0.30
2019-04-25T19:09:35.254Z,0.30
2019-04-25T19:12:04.834Z,0.37
2019-04-25T19:14:34.393Z,0.40
2019-04-25T19:17:07.807Z,0.40
2019-04-25T19:19:37.246Z,0.30
2019-04-25T19:22:08.699Z,0.40
2019-04-25T19:24:40.344Z,0.50
2019-04-25T19:27:23.221Z,0.50
2019-04-25T19:29:43.853Z,0.50
2019-04-25T19:32:13.406Z,0.47
2019-04-25T19:34:45.483Z,0.35
2019-04-25T19:37:15.446Z,0.50
2019-04-25T19:39:50.281Z,0.40
2019-04-25T19:42:24.374Z,0.40
2019-04-25T19:44:58.892Z,0.50
2019-04-25T19:47:29.910Z,0.62
2019-04-25T19:49:59.352Z,0.30
2019-04-25T19:52:29.645Z,0.50
2019-04-25T19:55:02.089Z,0.47
2019-04-25T19:57:32.610Z,0.40
2019-04-25T20:00:02.175Z,0.70
2019-04-25T20:02:46.633Z,0.40
2019-04-25T20:05:24.135Z,0.40
2019-04-25T20:08:01.461Z,0.50
2019-04-25T20:10:35.871Z,0.40
2019-04-25T20:13:05.369Z,0.40
2019-04-25T20:15:34.811Z,0.50
2019-04-25T20:18:04.776Z,0.50
2019-04-25T20:20:34.282Z,0.85
2019-04-25T20:23:08.256Z,0.45
2019-04-25T20:25:37.933Z,0.40
2019-04-25T20:28:07.476Z,0.47
2019-04-25T20:30:37.027Z,0.50
2019-04-25T20:33:06.569Z,0.40
2019-04-25T20:35:36.023Z,0.40
2019-04-25T20:38:07.264Z,0.50
2019-04-25T20:40:36.687Z,0.50
2019-04-25T20:43:06.115Z,0.45
2019-04-25T20:45:35.565Z,0.80
2019-04-25T20:48:07.697Z,0.60
2019-04-25T20:50:41.265Z,0.60
2019-04-25T20:53:10.777Z,0.60
2019-04-25T20:55:40.213Z,0.70
2019-04-25T20:58:09.711Z,0.80
2019-04-25T21:00:42.688Z,0.80
2019-04-25T21:03:12.279Z,0.78
2019-04-25T21:05:42.139Z,1.05
2019-04-25T21:08:11.630Z,0.78
2019-04-25T21:10:41.065Z,0.57
2019-04-25T21:13:12.133Z,0.75
2019-04-25T21:16:02.632Z,0.50
2019-04-25T21:18:36.936Z,0.40
2019-04-25T21:21:06.381Z,0.50
2019-04-25T21:23:35.850Z,0.60
2019-04-25T21:26:05.268Z,0.40
2019-04-25T21:28:34.843Z,0.57
2019-04-25T21:31:06.089Z,0.50
2019-04-25T21:33:36.729Z,0.60
2019-04-25T21:36:06.312Z,0.40
2019-04-25T21:38:36.188Z,1.25
2019-04-25T21:41:16.614Z,0.62
2019-04-25T21:43:47.754Z,0.50
2019-04-25T21:46:18.806Z,0.53
2019-04-25T21:48:48.494Z,0.37
2019-04-25T21:51:33.652Z,0.50
2019-04-25T21:54:05.020Z,0.90
2019-04-25T21:56:34.728Z,0.50
2019-04-25T21:59:04.425Z,0.60
2019-04-25T22:01:35.748Z,0.60
2019-04-25T22:04:06.067Z,0.57
2019-04-25T22:06:37.021Z,0.55
2019-04-25T22:09:10.165Z,0.50
2019-04-25T22:11:40.672Z,0.57
2019-04-25T22:14:11.553Z,0.50
2019-04-25T22:16:41.466Z,0.60
2019-04-25T22:19:11.442Z,0.57
2019-04-25T22:21:42.859Z,0.40
2019-04-25T22:24:15.056Z,0.68
2019-04-25T22:26:43.832Z,0.70
2019-04-25T22:29:13.441Z,0.60
2019-04-25T22:31:44.630Z,0.50
2019-04-25T22:34:15.682Z,0.50
2019-04-25T22:36:45.512Z,0.50
2019-04-25T22:39:15.892Z,0.70
2019-04-25T22:41:47.785Z,0.60
2019-04-25T22:44:19.046Z,0.60
2019-04-25T22:46:48.730Z,0.50
2019-04-25T22:49:18.304Z,0.50
2019-04-25T22:51:47.889Z,0.80
2019-04-25T22:54:17.714Z,0.50
2019-04-25T22:56:47.300Z,0.57
2019-04-25T22:59:18.506Z,0.60
2019-04-25T23:01:52.688Z,0.67
2019-04-25T23:04:41.558Z,0.80
2019-04-25T23:07:12.306Z,0.53
2019-04-25T23:09:44.794Z,0.53
2019-04-25T23:12:14.790Z,0.70
2019-04-25T23:14:45.045Z,0.50
2019-04-25T23:17:15.531Z,0.47
2019-04-25T23:19:45.317Z,0.60
2019-04-25T23:22:14.792Z,0.43
2019-04-25T23:24:47.104Z,0.60
2019-04-25T23:27:24.811Z,0.63
2019-04-25T23:29:54.217Z,0.90
2019-04-25T23:32:23.989Z,0.60
2019-04-25T23:34:54.480Z,0.40
2019-04-25T23:37:23.910Z,0.73
2019-04-25T23:39:53.368Z,0.90
2019-04-25T23:42:22.801Z,0.60
2019-04-25T23:44:52.298Z,0.50
2019-04-25T23:47:21.705Z,0.60
2019-04-25T23:49:51.474Z,0.50
2019-04-25T23:52:21.199Z,0.53
2019-04-25T23:54:50.685Z,1.20
2019-04-25T23:57:20.427Z,1.47
2019-04-25T23:59:49.935Z,0.80
